Garden City, Colorado
Current Conditions -  °F | °C
As of 6:55 AM on Thursday 30 Oct 2014 (Local Time) from KGXY Reporting Station
Clear Clear  
Wind Chill: 36°   Ceiling: Unl
Heat Index: 41°   Visibility: 10mi
Dew Point: 21°   Wind: 7mph
Humidity: 45%   Direction: 270°W
Pressure: 30.35"   Gusts: NA
Location:  40.4475°N, 104.686°W
Report Text: KGXY 301255Z AUTO 27006KT 10SM CLR 05/M06 A3035 RMK AO1
Loading
Personal Weather Stations






























Interactive Weather Map
Tropical Storm Tracking
New forecast layout! Learn more

10-Day Weather Forecast

Advertisements
Track Severe Weather on mobile